This is the latest recevied weather packets stored in our database for station/object K5SVV. If no packets are shown the sender has not sent any weather packets the latest 10 day(s).
| Time | Temp. | Humidity | Pressure | Rain* | Wind** | Luminosity | Snow |
|---|---|---|---|---|---|---|---|
| 1777566188 | 15° C | 99% | 1014.6 hPa | 0 mm | - | 85 W/m² | - |
| 1777565884 | 15° C | 99% | 1014.5 hPa | 1.78 mm | - | 97 W/m² | - |
| 1777565579 | 15° C | 99% | 1014.8 hPa | 4.83 mm | - | 81 W/m² | - |
| 1777565275 | 15° C | 99% | 1015 hPa | 4.83 mm | - | 60 W/m² | - |
| 1777564971 | 15° C | 99% | 1015.2 hPa | 4.83 mm | - | 51 W/m² | - |
| 1777564668 | 15° C | 99% | 1015 hPa | 6.1 mm | - | 40 W/m² | - |
| 1777564363 | 15° C | 99% | 1014.9 hPa | 11.94 mm | - | 27 W/m² | - |
| 1777564060 | 15° C | 99% | 1014.7 hPa | 14.99 mm | - | 44 W/m² | - |
| 1777563756 | 15° C | 98% | 1015.1 hPa | 9.65 mm | - | 15 W/m² | - |
| 1777563452 | 15° C | 98% | 1015.1 hPa | 3.05 mm | - | 8 W/m² | - |
| 1777563152 | 15° C | 98% | 1014.8 hPa | 1.27 mm | - | 12 W/m² | - |
| 1777562848 | 15° C | 98% | 1014.6 hPa | 1.27 mm | - | 24 W/m² | - |
| 1777562545 | 15° C | 98% | 1014.4 hPa | 0 mm | - | 23 W/m² | - |
| 1777562243 | 15° C | 98% | 1014.2 hPa | 0 mm | - | 22 W/m² | - |
| 1777561941 | 15° C | 98% | 1014.2 hPa | 0 mm | - | 21 W/m² | - |
| 1777561638 | 15° C | 98% | 1014 hPa | 0 mm | - | 29 W/m² | - |
| 1777561333 | 15° C | 98% | 1014.5 hPa | 0 mm | - | 25 W/m² | - |
| 1777561028 | 15° C | 97% | 1014.4 hPa | 0 mm | - | 30 W/m² | - |
| 1777560724 | 15° C | 97% | 1014.1 hPa | 0 mm | - | 39 W/m² | - |
| 1777560421 | 15° C | 97% | 1013.9 hPa | 0 mm | - | 45 W/m² | - |
| 1777560119 | 15° C | 97% | 1013.7 hPa | 0 mm | - | 42 W/m² | - |
| 1777559815 | 15° C | 96% | 1013.5 hPa | 0 mm | - | 46 W/m² | - |
| 1777559512 | 15° C | 96% | 1013.7 hPa | 0 mm | - | 39 W/m² | - |
| 1777559208 | 15° C | 95% | 1013.8 hPa | 0 mm | - | 33 W/m² | - |
| 1777558903 | 15° C | 95% | 1013.9 hPa | 0 mm | - | 35 W/m² | - |
* Rain latest hour (hover to see other rain measurements)
** Current wind speed in m/s (hover to see current wind gust speed)